createdAt,value
2022-10-22T00:01:57.534Z,8.90
2022-10-22T00:04:31.440Z,8.90
2022-10-22T00:07:03.248Z,8.90
2022-10-22T00:09:31.923Z,8.80
2022-10-22T00:12:00.633Z,8.80
2022-10-22T00:14:29.359Z,8.80
2022-10-22T00:17:01.073Z,8.70
2022-10-22T00:19:31.634Z,8.70
2022-10-22T00:22:02.777Z,8.70
2022-10-22T00:24:31.438Z,8.70
2022-10-22T00:27:00.096Z,8.70
2022-10-22T00:29:28.914Z,8.70
2022-10-22T00:31:58.090Z,8.70
2022-10-22T00:34:26.830Z,8.70
2022-10-22T00:36:57.026Z,8.70
2022-10-22T00:39:26.968Z,8.60
2022-10-22T00:41:57.419Z,8.60
2022-10-22T00:45:14.859Z,8.60
2022-10-22T00:47:46.590Z,8.50
2022-10-22T00:50:23.056Z,8.50
2022-10-22T00:52:53.318Z,8.50
2022-10-22T00:55:23.322Z,8.50
2022-10-22T00:57:52.636Z,8.50
2022-10-22T01:00:21.492Z,8.40
2022-10-22T01:02:51.591Z,8.40
2022-10-22T01:05:20.339Z,8.40
2022-10-22T01:07:51.400Z,8.40
2022-10-22T01:10:37.046Z,8.40
2022-10-22T01:13:18.635Z,8.40
2022-10-22T01:15:54.410Z,8.40
2022-10-22T01:18:28.774Z,8.40
2022-10-22T01:21:05.091Z,8.40
2022-10-22T01:23:56.118Z,8.30
2022-10-22T01:26:34.748Z,8.30
2022-10-22T01:29:11.429Z,8.30
2022-10-22T01:31:49.873Z,8.30
2022-10-22T01:34:20.301Z,8.30
2022-10-22T01:36:51.670Z,8.30
2022-10-22T01:39:21.428Z,8.30
2022-10-22T01:41:50.359Z,8.30
2022-10-22T01:44:31.579Z,8.30
2022-10-22T01:47:15.256Z,8.30
2022-10-22T01:50:12.813Z,8.30
2022-10-22T01:52:59.897Z,8.30
2022-10-22T01:55:35.168Z,8.20
2022-10-22T01:58:14.661Z,8.20
2022-10-22T02:00:50.637Z,8.20
2022-10-22T02:03:25.430Z,8.20
2022-10-22T02:05:58.081Z,8.20
2022-10-22T02:08:32.290Z,8.30
2022-10-22T02:11:02.207Z,8.20
2022-10-22T02:13:36.546Z,8.20
2022-10-22T02:16:10.019Z,8.10
2022-10-22T02:18:44.206Z,8.10
2022-10-22T02:21:13.312Z,8.10
2022-10-22T02:23:42.174Z,8.10
2022-10-22T02:26:17.622Z,8.10
2022-10-22T02:28:53.238Z,8.10
2022-10-22T02:31:27.303Z,8.10
2022-10-22T02:33:58.826Z,8.20
2022-10-22T02:36:28.110Z,8.20
2022-10-22T02:38:57.750Z,8.20
2022-10-22T02:41:26.448Z,8.20
2022-10-22T02:43:56.694Z,8.30
2022-10-22T02:46:27.521Z,8.30
2022-10-22T02:48:56.248Z,8.30
2022-10-22T02:51:24.870Z,8.30
2022-10-22T02:53:53.674Z,8.30
2022-10-22T02:56:22.282Z,8.30
2022-10-22T02:58:50.901Z,8.30
2022-10-22T03:01:19.625Z,8.30
2022-10-22T03:03:49.699Z,8.30
2022-10-22T03:06:18.586Z,8.30
2022-10-22T03:08:47.252Z,8.30
2022-10-22T03:11:15.895Z,8.30
2022-10-22T03:13:44.533Z,8.40
2022-10-22T03:16:13.120Z,8.40
2022-10-22T03:18:41.894Z,8.40
2022-10-22T03:21:21.896Z,8.40
2022-10-22T03:23:50.714Z,8.40
2022-10-22T03:26:19.925Z,8.30
2022-10-22T03:28:49.202Z,8.30
2022-10-22T03:31:17.841Z,8.30
2022-10-22T03:33:46.458Z,8.30
2022-10-22T03:36:16.627Z,8.30
2022-10-22T03:38:45.296Z,8.30
2022-10-22T03:41:13.992Z,8.30
2022-10-22T03:43:42.747Z,8.30
2022-10-22T03:46:11.402Z,8.30
2022-10-22T03:48:40.006Z,8.30
2022-10-22T03:51:08.683Z,8.30
2022-10-22T03:53:38.706Z,8.30
2022-10-22T03:56:10.335Z,8.30
2022-10-22T03:58:39.823Z,8.30
2022-10-22T04:01:10.007Z,8.30
2022-10-22T04:03:39.459Z,8.40
2022-10-22T04:06:10.150Z,8.40
2022-10-22T04:08:40.711Z,8.40
2022-10-22T04:11:09.555Z,8.40
2022-10-22T04:13:38.184Z,8.40
2022-10-22T04:16:11.003Z,8.40
2022-10-22T04:18:40.998Z,8.40
2022-10-22T04:21:12.173Z,8.40
2022-10-22T04:23:47.003Z,8.40
2022-10-22T04:26:16.295Z,8.50
2022-10-22T04:28:45.382Z,8.50
2022-10-22T04:31:17.700Z,8.60
2022-10-22T04:33:46.510Z,8.60
2022-10-22T04:36:17.179Z,8.70
2022-10-22T04:38:48.310Z,8.80
2022-10-22T04:41:18.894Z,8.90
2022-10-22T04:43:48.233Z,9.00
2022-10-22T04:46:18.827Z,9.10
2022-10-22T04:48:47.991Z,9.20
2022-10-22T04:51:18.617Z,9.20
2022-10-22T04:53:49.534Z,9.20
2022-10-22T04:56:21.190Z,9.30
2022-10-22T04:58:51.417Z,9.30
2022-10-22T05:01:21.754Z,9.30
2022-10-22T05:03:51.994Z,9.30
2022-10-22T05:06:21.643Z,9.30
2022-10-22T05:08:54.569Z,9.20
2022-10-22T05:11:25.797Z,9.30
2022-10-22T05:13:54.775Z,9.30
2022-10-22T05:16:23.378Z,9.30
2022-10-22T05:18:52.099Z,9.30
2022-10-22T05:21:22.275Z,9.30
2022-10-22T05:23:52.699Z,9.30
2022-10-22T05:26:22.695Z,9.30
2022-10-22T05:28:51.733Z,9.20
2022-10-22T05:31:21.592Z,9.20
2022-10-22T05:33:50.342Z,9.20
2022-10-22T05:36:21.487Z,9.10
2022-10-22T05:38:51.988Z,9.10
2022-10-22T05:41:24.595Z,9.20
2022-10-22T05:43:56.393Z,9.10
2022-10-22T05:46:26.959Z,9.20
2022-10-22T05:48:57.102Z,9.20
2022-10-22T05:51:26.757Z,9.30
2022-10-22T05:53:58.407Z,9.30
2022-10-22T05:56:28.736Z,9.50
2022-10-22T05:58:58.448Z,9.60
2022-10-22T06:01:29.381Z,9.70
2022-10-22T06:04:00.094Z,9.80
2022-10-22T06:06:31.598Z,9.90
2022-10-22T06:09:05.295Z,9.90
2022-10-22T06:11:35.323Z,10.00
2022-10-22T06:14:04.834Z,10.00
2022-10-22T06:16:34.076Z,10.10
2022-10-22T06:19:03.452Z,10.30
2022-10-22T06:21:32.836Z,10.30
2022-10-22T06:24:03.173Z,10.30
2022-10-22T06:26:32.408Z,10.30
2022-10-22T06:29:01.402Z,10.30
2022-10-22T06:31:36.604Z,10.30
2022-10-22T06:34:05.957Z,10.30
2022-10-22T06:36:35.068Z,10.30
2022-10-22T06:39:06.485Z,10.30
2022-10-22T06:41:35.142Z,10.30
2022-10-22T06:44:03.800Z,10.40
2022-10-22T06:46:32.850Z,10.40
2022-10-22T06:49:04.369Z,10.50
2022-10-22T06:51:33.282Z,10.70
2022-10-22T06:54:01.878Z,10.80
2022-10-22T06:56:32.007Z,11.00
2022-10-22T06:59:00.726Z,11.20
2022-10-22T07:01:32.296Z,11.30
2022-10-22T07:04:01.375Z,11.40
2022-10-22T07:06:31.261Z,11.50
2022-10-22T07:09:01.319Z,11.60
2022-10-22T07:11:38.824Z,11.60
2022-10-22T07:14:08.580Z,11.60
2022-10-22T07:16:37.938Z,11.50
2022-10-22T07:19:07.123Z,11.40
2022-10-22T07:21:36.056Z,11.40
2022-10-22T07:24:05.038Z,11.40
2022-10-22T07:26:35.159Z,11.30
2022-10-22T07:29:04.477Z,11.20
2022-10-22T07:31:33.236Z,11.30
2022-10-22T07:34:01.810Z,11.30
2022-10-22T07:36:30.527Z,11.20
2022-10-22T07:39:00.619Z,11.30
2022-10-22T07:41:30.632Z,11.30
2022-10-22T07:44:00.764Z,11.20
2022-10-22T07:46:29.377Z,11.20
2022-10-22T07:48:57.996Z,11.30
2022-10-22T07:51:27.157Z,11.30
2022-10-22T07:53:55.793Z,11.40
2022-10-22T07:56:24.499Z,11.40
2022-10-22T07:58:53.166Z,11.50
2022-10-22T08:01:23.260Z,11.60
2022-10-22T08:03:51.924Z,11.60
2022-10-22T08:06:20.503Z,11.70
2022-10-22T08:08:49.595Z,11.80
2022-10-22T08:11:18.459Z,11.80
2022-10-22T08:13:47.167Z,11.90
2022-10-22T08:16:16.659Z,12.00
2022-10-22T08:18:46.856Z,12.00
2022-10-22T08:21:15.775Z,12.00
2022-10-22T08:23:44.525Z,12.10
2022-10-22T08:26:13.250Z,12.20
2022-10-22T08:28:41.907Z,12.20
2022-10-22T08:31:10.710Z,12.30
2022-10-22T08:33:41.849Z,12.30
2022-10-22T08:36:12.272Z,12.30
2022-10-22T08:38:41.023Z,12.20
2022-10-22T08:41:14.291Z,12.20
2022-10-22T08:44:12.066Z,12.30
2022-10-22T08:46:52.718Z,12.30
2022-10-22T08:49:25.713Z,12.30
2022-10-22T08:51:58.678Z,12.30
2022-10-22T08:54:34.787Z,12.30
2022-10-22T08:57:18.152Z,12.30
2022-10-22T08:59:52.580Z,12.40
2022-10-22T09:02:34.316Z,12.40
2022-10-22T09:05:13.256Z,12.40
2022-10-22T09:07:50.208Z,12.30
2022-10-22T09:10:20.493Z,12.30
2022-10-22T09:12:49.854Z,12.30
2022-10-22T09:15:20.521Z,12.10
2022-10-22T09:18:01.045Z,12.10
2022-10-22T09:20:35.899Z,12.20
2022-10-22T09:23:22.886Z,12.20
2022-10-22T09:25:53.615Z,12.20
2022-10-22T09:28:22.253Z,12.20
2022-10-22T09:30:51.084Z,12.20
2022-10-22T09:33:26.827Z,12.20
2022-10-22T09:35:59.181Z,12.30
2022-10-22T09:38:31.576Z,12.30
2022-10-22T09:41:03.825Z,12.30
2022-10-22T09:43:33.677Z,12.40
2022-10-22T09:46:04.322Z,12.50
2022-10-22T09:48:36.682Z,12.50
2022-10-22T09:51:12.202Z,12.50
2022-10-22T09:53:45.157Z,12.50
2022-10-22T09:56:26.412Z,12.50
2022-10-22T09:58:58.085Z,12.60
2022-10-22T10:01:30.931Z,12.60
2022-10-22T10:04:09.372Z,12.70
2022-10-22T10:06:40.644Z,12.70
2022-10-22T10:09:17.031Z,12.80
2022-10-22T10:11:50.213Z,12.90
2022-10-22T10:14:26.409Z,12.90
2022-10-22T10:17:01.591Z,13.00
2022-10-22T10:19:48.199Z,13.10
2022-10-22T10:22:31.689Z,13.20
2022-10-22T10:25:27.369Z,13.30
2022-10-22T10:28:02.742Z,13.20
2022-10-22T10:30:33.867Z,13.20
2022-10-22T10:33:21.466Z,13.20
2022-10-22T10:35:58.718Z,13.20
2022-10-22T10:38:40.651Z,13.30
2022-10-22T10:41:24.776Z,13.30
2022-10-22T10:44:17.247Z,13.30
2022-10-22T10:46:54.178Z,13.40
2022-10-22T10:49:26.758Z,13.50
2022-10-22T10:52:02.452Z,13.60
2022-10-22T10:54:45.116Z,13.80
2022-10-22T10:57:24.967Z,13.80
2022-10-22T11:00:05.984Z,13.90
2022-10-22T11:03:25.327Z,13.90
2022-10-22T11:05:57.992Z,13.90
2022-10-22T11:08:31.872Z,14.00
2022-10-22T11:11:02.997Z,14.10
2022-10-22T11:13:38.009Z,14.20
2022-10-22T11:16:13.315Z,14.30
2022-10-22T11:18:46.398Z,14.30
2022-10-22T11:21:26.059Z,14.20
2022-10-22T11:24:02.299Z,14.20
2022-10-22T11:26:38.744Z,14.20
2022-10-22T11:29:13.994Z,14.20
2022-10-22T11:31:45.496Z,14.30
2022-10-22T11:34:35.057Z,14.30
2022-10-22T11:37:06.214Z,14.30
2022-10-22T11:39:42.043Z,14.40
2022-10-22T11:42:13.285Z,14.50
2022-10-22T11:45:00.050Z,14.50
2022-10-22T11:47:30.752Z,14.50
2022-10-22T11:50:17.780Z,14.50
2022-10-22T11:52:56.867Z,14.40
2022-10-22T11:55:48.278Z,14.40
2022-10-22T11:58:39.217Z,14.50
2022-10-22T12:01:26.863Z,14.40
2022-10-22T12:04:23.947Z,14.50
2022-10-22T12:07:01.655Z,14.50
2022-10-22T12:09:32.938Z,14.50
2022-10-22T12:12:14.469Z,14.60
2022-10-22T12:14:54.805Z,14.70
2022-10-22T12:17:24.126Z,14.80
2022-10-22T12:20:02.227Z,14.80
2022-10-22T12:22:34.164Z,14.80
2022-10-22T12:25:07.373Z,14.80
2022-10-22T12:27:38.743Z,14.80
2022-10-22T12:30:19.844Z,14.90
2022-10-22T12:32:48.578Z,14.80
2022-10-22T12:35:22.258Z,14.80
2022-10-22T12:37:52.124Z,14.80
2022-10-22T12:40:23.010Z,14.90
2022-10-22T12:42:53.020Z,14.90
2022-10-22T12:45:22.738Z,14.80
2022-10-22T12:47:54.083Z,14.80
2022-10-22T12:50:33.015Z,14.90
2022-10-22T12:53:02.004Z,14.90
2022-10-22T12:55:34.836Z,14.70
2022-10-22T12:58:07.267Z,14.70
2022-10-22T13:00:37.279Z,14.70
2022-10-22T13:03:08.237Z,14.60
2022-10-22T13:05:40.045Z,14.60
2022-10-22T13:08:11.925Z,14.60
2022-10-22T13:10:42.065Z,14.50
2022-10-22T13:13:31.981Z,14.60
2022-10-22T13:16:15.307Z,14.60
2022-10-22T13:18:44.916Z,14.60
2022-10-22T13:21:27.081Z,14.60
2022-10-22T13:23:58.866Z,14.50
2022-10-22T13:26:34.162Z,14.50
2022-10-22T13:29:04.074Z,14.40
2022-10-22T13:31:34.157Z,14.40
2022-10-22T13:34:09.841Z,14.40
2022-10-22T13:36:41.982Z,14.40
2022-10-22T13:39:17.638Z,14.40
2022-10-22T13:41:46.893Z,14.40
2022-10-22T13:44:15.537Z,14.50
2022-10-22T13:46:44.560Z,14.50
2022-10-22T13:49:16.756Z,14.50
2022-10-22T13:51:47.897Z,14.50
2022-10-22T13:54:20.824Z,14.40
2022-10-22T13:56:49.701Z,14.40
2022-10-22T13:59:21.230Z,14.40
2022-10-22T14:01:53.289Z,14.40
2022-10-22T14:04:21.966Z,14.30
2022-10-22T14:06:51.981Z,14.30
2022-10-22T14:09:21.664Z,14.30
2022-10-22T14:11:50.297Z,14.30
2022-10-22T14:14:19.208Z,14.30
2022-10-22T14:16:48.088Z,14.30
2022-10-22T14:19:18.815Z,14.30
2022-10-22T14:21:50.203Z,14.40
2022-10-22T14:24:20.201Z,14.40
2022-10-22T14:26:48.840Z,14.40
2022-10-22T14:29:17.518Z,14.40
2022-10-22T14:31:46.746Z,14.40
2022-10-22T14:34:16.732Z,14.30
2022-10-22T14:36:45.602Z,14.30
2022-10-22T14:39:14.504Z,14.30
2022-10-22T14:41:44.692Z,14.30
2022-10-22T14:44:14.523Z,14.20
2022-10-22T14:46:44.502Z,14.20
2022-10-22T14:49:13.715Z,14.20
2022-10-22T14:51:43.213Z,14.10
2022-10-22T14:54:12.529Z,14.10
2022-10-22T14:56:41.267Z,14.10
2022-10-22T14:59:11.421Z,14.20
2022-10-22T15:01:42.991Z,14.20
2022-10-22T15:04:11.822Z,14.10
2022-10-22T15:06:40.536Z,14.10
2022-10-22T15:09:09.235Z,14.10
2022-10-22T15:11:37.933Z,14.10
2022-10-22T15:14:06.669Z,14.10
2022-10-22T15:16:36.885Z,14.10
2022-10-22T15:19:05.491Z,14.10
2022-10-22T15:21:34.271Z,14.10
2022-10-22T15:24:03.036Z,14.10
2022-10-22T15:26:31.759Z,14.00
2022-10-22T15:29:00.424Z,14.00
2022-10-22T15:31:48.665Z,14.00
2022-10-22T15:34:23.383Z,14.00
2022-10-22T15:36:53.038Z,13.90
2022-10-22T15:39:21.785Z,13.90
2022-10-22T15:41:50.566Z,13.90
2022-10-22T15:44:21.968Z,13.80
2022-10-22T15:46:54.874Z,13.80
2022-10-22T15:49:24.031Z,13.80
2022-10-22T15:51:53.414Z,13.80
2022-10-22T15:54:24.260Z,13.80
2022-10-22T15:56:53.031Z,13.80
2022-10-22T15:59:24.511Z,13.80
2022-10-22T16:01:54.622Z,13.70
2022-10-22T16:04:23.282Z,13.70
2022-10-22T16:06:54.223Z,13.70
2022-10-22T16:09:25.070Z,13.70
2022-10-22T16:11:56.709Z,13.70
2022-10-22T16:14:25.391Z,13.70
2022-10-22T16:16:56.671Z,13.70
2022-10-22T16:19:26.202Z,13.70
2022-10-22T16:21:56.851Z,13.70
2022-10-22T16:24:25.570Z,13.70
2022-10-22T16:26:55.400Z,13.60
2022-10-22T16:29:24.058Z,13.60
2022-10-22T16:31:54.155Z,13.60
2022-10-22T16:34:22.907Z,13.60
2022-10-22T16:36:53.741Z,13.60
2022-10-22T16:39:22.530Z,13.50
2022-10-22T16:41:51.919Z,13.60
2022-10-22T16:44:20.542Z,13.50
2022-10-22T16:46:49.705Z,13.60
2022-10-22T16:49:19.690Z,13.50
2022-10-22T16:51:48.345Z,13.50
2022-10-22T16:54:17.054Z,13.50
2022-10-22T16:56:45.675Z,13.50
2022-10-22T16:59:14.676Z,13.50
2022-10-22T17:01:43.470Z,13.50
2022-10-22T17:04:12.170Z,13.50
2022-10-22T17:06:42.154Z,13.50
2022-10-22T17:09:10.926Z,13.40
2022-10-22T17:11:41.333Z,13.40
2022-10-22T17:14:12.805Z,13.50
2022-10-22T17:16:41.438Z,13.50
2022-10-22T17:19:14.125Z,13.50
2022-10-22T17:21:45.121Z,13.50
2022-10-22T17:24:13.760Z,13.50
2022-10-22T17:26:43.355Z,13.40
2022-10-22T17:29:12.260Z,13.40
2022-10-22T17:31:41.781Z,13.40
2022-10-22T17:34:15.886Z,13.30
2022-10-22T17:36:46.094Z,13.30
2022-10-22T17:39:18.677Z,13.20
2022-10-22T17:41:47.281Z,13.20
2022-10-22T17:44:17.176Z,13.20
2022-10-22T17:46:46.177Z,13.10
2022-10-22T17:49:18.298Z,13.10
2022-10-22T17:51:48.745Z,13.10
2022-10-22T17:54:17.492Z,13.00
2022-10-22T17:56:46.134Z,13.00
2022-10-22T17:59:17.188Z,13.00
2022-10-22T18:01:47.836Z,13.00
2022-10-22T18:04:18.560Z,13.00
2022-10-22T18:06:49.259Z,13.00
2022-10-22T18:09:19.809Z,13.00
2022-10-22T18:11:48.905Z,13.00
2022-10-22T18:14:19.360Z,13.00
2022-10-22T18:16:49.197Z,13.00
2022-10-22T18:19:20.735Z,13.00
2022-10-22T18:21:51.010Z,13.00
2022-10-22T18:24:20.111Z,13.00
2022-10-22T18:26:48.731Z,13.00
2022-10-22T18:29:20.487Z,13.00
2022-10-22T18:31:49.617Z,13.00
2022-10-22T18:34:21.582Z,13.00
2022-10-22T18:36:53.869Z,13.00
2022-10-22T18:39:22.958Z,13.00
2022-10-22T18:41:51.564Z,13.00
2022-10-22T18:44:20.345Z,13.00
2022-10-22T18:46:49.004Z,13.00
2022-10-22T18:49:19.415Z,13.10
2022-10-22T18:51:52.806Z,13.10
2022-10-22T18:54:24.368Z,13.10
2022-10-22T18:56:53.827Z,13.10
2022-10-22T18:59:24.401Z,13.10
2022-10-22T19:01:53.869Z,13.10
2022-10-22T19:04:22.534Z,13.10
2022-10-22T19:06:51.149Z,13.00
2022-10-22T19:09:19.955Z,13.00
2022-10-22T19:11:50.065Z,13.00
2022-10-22T19:14:20.561Z,13.00
2022-10-22T19:16:49.703Z,13.00
2022-10-22T19:19:20.551Z,13.00
2022-10-22T19:21:49.594Z,13.00
2022-10-22T19:24:20.110Z,13.00
2022-10-22T19:26:50.789Z,12.90
2022-10-22T19:29:21.320Z,12.90
2022-10-22T19:31:51.700Z,12.80
2022-10-22T19:34:21.212Z,12.70
2022-10-22T19:36:51.771Z,12.60
2022-10-22T19:39:21.289Z,12.60
2022-10-22T19:41:51.354Z,12.60
2022-10-22T19:44:20.982Z,12.60
2022-10-22T19:46:49.812Z,12.60
2022-10-22T19:49:22.215Z,12.60
2022-10-22T19:51:51.759Z,12.60
2022-10-22T19:54:20.647Z,12.70
2022-10-22T19:56:51.378Z,12.70
2022-10-22T19:59:22.841Z,12.80
2022-10-22T20:01:51.776Z,12.80
2022-10-22T20:04:20.701Z,12.80
2022-10-22T20:06:49.314Z,12.80
2022-10-22T20:09:18.889Z,12.80
2022-10-22T20:11:47.720Z,12.80
2022-10-22T20:14:17.769Z,12.90
2022-10-22T20:16:46.471Z,12.90
2022-10-22T20:19:17.001Z,12.90
2022-10-22T20:21:48.474Z,12.90
2022-10-22T20:24:17.270Z,12.90
2022-10-22T20:26:46.853Z,12.90
2022-10-22T20:29:19.120Z,12.90
2022-10-22T20:31:48.293Z,12.90
2022-10-22T20:34:17.428Z,13.00
2022-10-22T20:36:46.115Z,13.00
2022-10-22T20:39:16.554Z,13.00
2022-10-22T20:41:45.156Z,13.00
2022-10-22T20:44:16.852Z,13.00
2022-10-22T20:46:47.040Z,13.00
2022-10-22T20:49:17.638Z,13.00
2022-10-22T20:51:46.658Z,13.00
2022-10-22T20:54:16.369Z,13.10
2022-10-22T20:56:45.613Z,13.10
2022-10-22T20:59:14.278Z,13.10
2022-10-22T21:01:45.620Z,13.10
2022-10-22T21:04:16.684Z,13.10
2022-10-22T21:06:45.358Z,13.10
2022-10-22T21:09:15.574Z,13.10
2022-10-22T21:11:44.888Z,13.10
2022-10-22T21:14:16.636Z,13.10
2022-10-22T21:16:46.656Z,13.00
2022-10-22T21:19:16.822Z,13.00
2022-10-22T21:21:46.817Z,12.90
2022-10-22T21:24:15.724Z,12.80
2022-10-22T21:26:46.555Z,12.70
2022-10-22T21:29:15.175Z,12.60
2022-10-22T21:31:44.533Z,12.50
2022-10-22T21:34:13.912Z,12.50
2022-10-22T21:36:44.217Z,12.40
2022-10-22T21:39:13.998Z,12.30
2022-10-22T21:41:42.640Z,12.20
2022-10-22T21:44:11.363Z,12.10
2022-10-22T21:46:40.069Z,12.10
2022-10-22T21:49:08.650Z,12.00
2022-10-22T21:51:38.343Z,12.00
2022-10-22T21:54:08.398Z,12.00
2022-10-22T21:56:37.896Z,11.90
2022-10-22T21:59:08.133Z,11.90
2022-10-22T22:01:37.099Z,11.80
2022-10-22T22:04:05.854Z,11.80
2022-10-22T22:06:35.201Z,11.70
2022-10-22T22:09:05.004Z,11.70
2022-10-22T22:11:35.111Z,11.70
2022-10-22T22:14:03.871Z,11.70
2022-10-22T22:16:34.007Z,11.60
2022-10-22T22:21:40.348Z,11.60
2022-10-22T22:24:10.566Z,11.60
2022-10-22T22:26:41.163Z,11.60
2022-10-22T22:29:09.810Z,11.60
2022-10-22T22:31:38.515Z,11.60
2022-10-22T22:34:11.278Z,11.60
2022-10-22T22:36:41.577Z,11.50
2022-10-22T22:39:12.960Z,11.50
2022-10-22T22:41:43.437Z,11.50
2022-10-22T22:44:12.641Z,11.40
2022-10-22T22:46:41.450Z,11.40
2022-10-22T22:49:10.423Z,11.30
2022-10-22T22:51:39.034Z,11.30
2022-10-22T22:54:07.682Z,11.30
2022-10-22T22:56:36.532Z,11.30
2022-10-22T22:59:07.230Z,11.30
2022-10-22T23:01:37.604Z,11.30
2022-10-22T23:04:08.332Z,11.30
2022-10-22T23:06:38.617Z,11.30
2022-10-22T23:09:08.801Z,11.20
2022-10-22T23:11:37.983Z,11.20
2022-10-22T23:14:09.566Z,11.20
2022-10-22T23:16:41.823Z,11.20
2022-10-22T23:19:11.280Z,11.20
2022-10-22T23:21:41.299Z,11.20
2022-10-22T23:24:13.363Z,11.30
2022-10-22T23:26:44.263Z,11.20
2022-10-22T23:29:16.282Z,11.20
2022-10-22T23:31:45.849Z,11.20
2022-10-22T23:34:17.183Z,11.10
2022-10-22T23:36:46.262Z,11.10
2022-10-22T23:39:16.964Z,11.10
2022-10-22T23:41:45.742Z,11.10
2022-10-22T23:44:16.130Z,11.00
2022-10-22T23:46:45.038Z,10.90
2022-10-22T23:49:14.074Z,10.90
2022-10-22T23:51:43.167Z,10.80
2022-10-22T23:54:14.838Z,10.80
2022-10-22T23:56:43.749Z,10.80
